Bata — UBAP3 — position and weather

sailwx.info

Track history (hours):
 
Tides and Currents Weather Stations Pressure Air Temp Water Temp Dewpoint Dewpoint Depression Visibility Wind Speed Wind Dir Waves Ship Positions

Bata

Last reported at 2018-Apr-25 18:01 UTC. Time now 2018-Apr-25 18:26 UTC.
Position N 45°21' E 036°40'.

Length 22 m; draft 1.9 m.

Type: Pilot. MMSI: 273397680.

Date/timePositionNaut miles runAvg speedWind from/ knotsBaromVisibWave heightAir tempDewpointWater temp
2018-Apr-25 18:01N 45°21' E 036°40'1 1.5
2018-Apr-25 17:30N 45°20' E 036°40'0 0.0
2018-Apr-25 17:00N 45°20' E 036°40'0 0.0
2018-Apr-25 16:30N 45°20' E 036°40'1 2.8
2018-Apr-25 16:01N 45°22' E 036°40'1 1.8
2018-Apr-25 15:31N 45°22' E 036°42'2 3.9
2018-Apr-25 15:00N 45°20' E 036°40'0 0.0
2018-Apr-25 14:30N 45°20' E 036°40'0 0.0
2018-Apr-25 14:00N 45°20' E 036°40'0 0.0
2018-Apr-25 13:30N 45°20' E 036°40'0 0.0
2018-Apr-25 13:00N 45°20' E 036°40'0 0.0
2018-Apr-25 12:30N 45°20' E 036°40'0 0.0
2018-Apr-25 12:00N 45°20' E 036°40'0 0.0
2018-Apr-25 11:30N 45°20' E 036°40'0 0.0
2018-Apr-25 11:00N 45°20' E 036°40'0 0.0
2018-Apr-25 10:30N 45°20' E 036°40'0 0.0
2018-Apr-25 10:00N 45°20' E 036°40'0 0.0
2018-Apr-25 09:30N 45°20' E 036°40'0 0.0
2018-Apr-25 09:00N 45°20' E 036°40'0 0.0
2018-Apr-25 08:30N 45°20' E 036°40'0 0.0
2018-Apr-25 08:00N 45°20' E 036°40'0 0.0
2018-Apr-25 07:30N 45°20' E 036°40'0 0.0
2018-Apr-25 07:00N 45°20' E 036°40'0 0.0
2018-Apr-25 06:30N 45°20' E 036°40'0 0.0
2018-Apr-25 06:00N 45°20' E 036°40'0 0.0
2018-Apr-25 05:30N 45°20' E 036°40'0 0.0
2018-Apr-25 04:59N 45°20' E 036°40'0 0.0
2018-Apr-25 04:30N 45°20' E 036°40'0 0.0
2018-Apr-25 04:00N 45°20' E 036°40'0 0.1
2018-Apr-25 03:30N 45°20' E 036°40'1 1.7
2018-Apr-25 03:00N 45°21' E 036°40'1 1.7
2018-Apr-25 02:30N 45°20' E 036°40'1 1.6
2018-Apr-25 02:00N 45°21' E 036°40'3 5.3
2018-Apr-25 01:30N 45°20' E 036°37'7 5.9
2018-Apr-25 00:23N 45°16' E 036°29'2 3.7
2018-Apr-24 23:47N 45°18' E 036°30'2 7.6
2018-Apr-24 23:30N 45°19' E 036°33'4 8.1
2018-Apr-24 23:00N 45°21' E 036°38'1 2.6
2018-Apr-24 22:30N 45°20' E 036°40'0 0.0
2018-Apr-24 22:00N 45°20' E 036°40'0 0.0
2018-Apr-24 21:30N 45°20' E 036°40'0 0.0
2018-Apr-24 21:00N 45°20' E 036°40'0 0.0
2018-Apr-24 20:30N 45°20' E 036°40'0 0.0
2018-Apr-24 20:00N 45°20' E 036°40'0 0.0
2018-Apr-24 19:30N 45°20' E 036°40'0 0.0
2018-Apr-24 19:00N 45°20' E 036°40'0 0.0
2018-Apr-24 18:30N 45°20' E 036°40'0 0.0
2018-Apr-24 18:00N 45°20' E 036°40'0 0.0
2018-Apr-24 17:30N 45°20' E 036°40'0 0.0
2018-Apr-24 17:00N 45°20' E 036°40'1 2.3
2018-Apr-24 16:30N 45°21' E 036°40'1 2.3
2018-Apr-24 16:00N 45°20' E 036°40'0 0.0
2018-Apr-24 15:30N 45°20' E 036°40'0 0.0
2018-Apr-24 15:00N 45°20' E 036°40'0 0.0
2018-Apr-24 14:30N 45°20' E 036°40'0 0.0
2018-Apr-24 14:00N 45°20' E 036°40'0 0.0
2018-Apr-24 13:29N 45°20' E 036°40'0 0.0
2018-Apr-24 13:00N 45°20' E 036°40'0 0.0
2018-Apr-24 12:30N 45°20' E 036°40'0 0.0
2018-Apr-24 12:00N 45°20' E 036°40'0 0.0
2018-Apr-24 11:30N 45°20' E 036°40'0 0.0
2018-Apr-24 11:00N 45°20' E 036°40'0 0.0
2018-Apr-24 10:30N 45°20' E 036°40'0 0.0
2018-Apr-24 10:00N 45°20' E 036°40'0 0.0
2018-Apr-24 09:29N 45°20' E 036°40'0 0.0
2018-Apr-24 09:00N 45°20' E 036°40'0 0.0
2018-Apr-24 08:30N 45°20' E 036°40'0 0.0
2018-Apr-24 08:00N 45°20' E 036°40'0 0.0
2018-Apr-24 07:30N 45°20' E 036°40'0 0.0
2018-Apr-24 06:59N 45°20' E 036°40'0 0.0
2018-Apr-24 06:30N 45°20' E 036°40'0 0.0
2018-Apr-24 05:59N 45°20' E 036°40'0 0.0
2018-Apr-24 05:30N 45°20' E 036°40'0 0.0
2018-Apr-24 05:00N 45°20' E 036°40'0 0.0
2018-Apr-24 04:30N 45°20' E 036°40'0 0.0
2018-Apr-24 04:00N 45°20' E 036°40'0 0.0
2018-Apr-24 03:30N 45°20' E 036°40'0 0.0
2018-Apr-24 03:00N 45°20' E 036°40'0 0.0
2018-Apr-24 02:30N 45°20' E 036°40'0 0.0
2018-Apr-24 02:00N 45°20' E 036°40'0 0.0
2018-Apr-24 01:30N 45°20' E 036°40'0 0.0
2018-Apr-24 01:00N 45°20' E 036°40'0 0.0
2018-Apr-24 00:30N 45°20' E 036°40'0 0.0
2018-Apr-24 00:00N 45°20' E 036°40'0 0.0
2018-Apr-23 23:30N 45°20' E 036°40'0 0.0
2018-Apr-23 23:00N 45°20' E 036°40'0 0.0
2018-Apr-23 22:30N 45°20' E 036°40'1 2.0
2018-Apr-23 22:00N 45°21' E 036°40'1 1.9
2018-Apr-23 21:30N 45°20' E 036°40'0 0.0
2018-Apr-23 21:00N 45°20' E 036°40'0 0.0
2018-Apr-23 20:30N 45°20' E 036°40'0 0.0
2018-Apr-23 20:00N 45°20' E 036°40'0 0.0
2018-Apr-23 19:30N 45°20' E 036°40'0 0.0
2018-Apr-23 19:00N 45°20' E 036°40'0 0.0
2018-Apr-23 18:29N 45°20' E 036°40'0 0.0
2018-Apr-23 17:57N 45°20' E 036°40'0 0.0
2018-Apr-23 17:29N 45°20' E 036°40'0 0.0
2018-Apr-23 17:00N 45°20' E 036°40'0 0.0
2018-Apr-23 16:30N 45°20' E 036°40'0 0.0
2018-Apr-23 16:00N 45°20' E 036°40'0 0.0
2018-Apr-23 15:30N 45°20' E 036°40'0 0.0
2018-Apr-23 15:00N 45°20' E 036°40'0 0.0
2018-Apr-23 14:30N 45°20' E 036°40'0 0.0
2018-Apr-23 14:00N 45°20' E 036°40'1 2.4
2018-Apr-23 13:30N 45°21' E 036°39'1 2.5
2018-Apr-23 13:00N 45°20' E 036°40'0 0.2
2018-Apr-23 12:30N 45°20' E 036°40'0 0.0
2018-Apr-23 12:00N 45°20' E 036°40'0 0.0
2018-Apr-23 11:30N 45°20' E 036°40'0 0.0
2018-Apr-23 11:00N 45°20' E 036°40'0 0.0
2018-Apr-23 10:30N 45°20' E 036°40'0 0.0
2018-Apr-23 10:00N 45°20' E 036°40'0 0.0
2018-Apr-23 09:29N 45°20' E 036°40'0 0.0
2018-Apr-23 09:00N 45°20' E 036°40'0 0.0
2018-Apr-23 08:30N 45°20' E 036°40'0 0.0
2018-Apr-23 08:00N 45°20' E 036°40'0 0.0
2018-Apr-23 07:29N 45°20' E 036°40'0 0.0
2018-Apr-23 07:00N 45°20' E 036°40'0 0.0
2018-Apr-23 06:30N 45°20' E 036°40'0 0.0
2018-Apr-23 06:00N 45°20' E 036°40'0 0.0
2018-Apr-23 05:30N 45°20' E 036°40'0 0.0
2018-Apr-23 05:00N 45°20' E 036°40'0 0.0
2018-Apr-23 04:30N 45°20' E 036°40'0 0.0
2018-Apr-23 04:00N 45°20' E 036°40'0 0.0
2018-Apr-23 03:29N 45°20' E 036°40'0 0.0
2018-Apr-23 03:00N 45°20' E 036°40'0 0.0
2018-Apr-23 02:29N 45°20' E 036°40'0 0.0
2018-Apr-23 01:05N 45°20' E 036°40'0 0.0
2018-Apr-23 00:57N 45°20' E 036°40'0 0.0
2018-Apr-23 00:14N 45°20' E 036°40'0 0.0
2018-Apr-23 00:00N 45°20' E 036°40'0 0.0
2018-Apr-22 23:30N 45°20' E 036°40'0 0.0
2018-Apr-22 23:00N 45°20' E 036°40'3 6.0
2018-Apr-22 22:30N 45°20' E 036°36'2 2.3
2018-Apr-22 21:25N 45°19' E 036°33'4 9.8
2018-Apr-22 21:00N 45°20' E 036°38'2 3.3
2018-Apr-22 20:30N 45°20' E 036°40'0 0.0
2018-Apr-22 19:59N 45°20' E 036°40'0 0.0
2018-Apr-22 19:29N 45°20' E 036°40'0 0.0
2018-Apr-22 18:59N 45°20' E 036°40'0 0.0
2018-Apr-22 18:30N 45°20' E 036°40'0 0.0
2018-Apr-22 18:00N 45°20' E 036°40'0 0.0
2018-Apr-22 17:30N 45°20' E 036°40'0 0.0
2018-Apr-22 17:00N 45°20' E 036°40'0 0.0
2018-Apr-22 16:31N 45°20' E 036°40'0 0.0
2018-Apr-22 16:00N 45°20' E 036°40'0 0.0
2018-Apr-22 15:30N 45°20' E 036°40'0 0.0
2018-Apr-22 14:58N 45°20' E 036°40'0 0.0
2018-Apr-22 14:30N 45°20' E 036°40'0 0.0
2018-Apr-22 14:00N 45°20' E 036°40'0 0.0
2018-Apr-22 13:29N 45°20' E 036°40'0 0.0
2018-Apr-22 13:00N 45°20' E 036°40'0 0.0
2018-Apr-22 12:30N 45°20' E 036°40'0 0.0
2018-Apr-22 12:00N 45°20' E 036°40'0 0.0
2018-Apr-22 11:30N 45°20' E 036°40'1 2.2
2018-Apr-22 11:00N 45°21' E 036°39'1 2.2
2018-Apr-22 10:30N 45°20' E 036°40'0 0.0
2018-Apr-22 10:00N 45°20' E 036°40'0 0.0
2018-Apr-22 09:30N 45°20' E 036°40'0 0.0
2018-Apr-22 09:00N 45°20' E 036°40'0 0.0
2018-Apr-22 08:30N 45°20' E 036°40'0 0.0
2018-Apr-22 08:00N 45°20' E 036°40'0 0.0
2018-Apr-22 07:30N 45°20' E 036°40'0 0.0
2018-Apr-22 07:00N 45°20' E 036°40'0 0.0
2018-Apr-22 06:30N 45°20' E 036°40'0 0.0
2018-Apr-22 06:00N 45°20' E 036°40'0 0.0
2018-Apr-22 05:30N 45°20' E 036°40'0 0.0
2018-Apr-22 05:00N 45°20' E 036°40'0 0.0
2018-Apr-22 04:30N 45°20' E 036°40'0 0.0
2018-Apr-22 04:00N 45°20' E 036°40'0 0.0
2018-Apr-22 03:30N 45°20' E 036°40'0 0.0
2018-Apr-22 03:00N 45°20' E 036°40'0 0.0
2018-Apr-22 02:30N 45°20' E 036°40'0 0.0
2018-Apr-22 01:59N 45°20' E 036°40'0 0.0
2018-Apr-22 01:30N 45°20' E 036°40'0 0.0
2018-Apr-22 01:00N 45°20' E 036°40'0 0.0
2018-Apr-22 00:30N 45°20' E 036°40'0 0.0
2018-Apr-22 00:00N 45°20' E 036°40'0 0.0
2018-Apr-21 23:28N 45°20' E 036°40'0 0.0
2018-Apr-21 23:00N 45°20' E 036°40'0 0.0
2018-Apr-21 22:30N 45°20' E 036°40'0 0.0
2018-Apr-21 22:00N 45°20' E 036°40'0 0.0
2018-Apr-21 21:30N 45°20' E 036°40'0 0.0
2018-Apr-21 21:00N 45°20' E 036°40'0 0.0
2018-Apr-21 20:30N 45°20' E 036°40'0 0.0
2018-Apr-21 20:00N 45°20' E 036°40'0 0.0
2018-Apr-21 19:30N 45°20' E 036°40'0 0.0
2018-Apr-21 19:00N 45°20' E 036°40'0 0.0
2018-Apr-21 18:30N 45°20' E 036°40'0 0.0
2018-Apr-21 18:00N 45°20' E 036°40'0 0.0
2018-Apr-21 17:30N 45°20' E 036°40'0 0.0
2018-Apr-21 17:00N 45°20' E 036°40'1 2.1
2018-Apr-21 16:30N 45°21' E 036°40'1 1.9
2018-Apr-21 16:00N 45°20' E 036°40'1 1.1
2018-Apr-21 15:30N 45°21' E 036°40'0 0.7
2018-Apr-21 15:01N 45°21' E 036°40'0 0.2
2018-Apr-21 14:28N 45°21' E 036°40'1 1.5
2018-Apr-21 14:00N 45°21' E 036°40'1 1.1
2018-Apr-21 13:30N 45°20' E 036°40'0 0.0
2018-Apr-21 13:01N 45°20' E 036°40'0 0.0
2018-Apr-21 12:30N 45°20' E 036°40'0 0.0
2018-Apr-21 12:00N 45°20' E 036°40'0 0.0
2018-Apr-21 11:31N 45°20' E 036°40'0 0.0
2018-Apr-21 11:01N 45°20' E 036°40'0 0.0
2018-Apr-21 10:31N 45°20' E 036°40'0 0.0
2018-Apr-21 10:01N 45°20' E 036°40'0 0.0
2018-Apr-21 09:31N 45°20' E 036°40'0 0.0
2018-Apr-21 09:00N 45°20' E 036°40'0 0.0
2018-Apr-21 08:30N 45°20' E 036°40'0 0.0
2018-Apr-21 08:00N 45°20' E 036°40'0 0.0
2018-Apr-21 07:31N 45°20' E 036°40'0 0.0
2018-Apr-21 07:00N 45°20' E 036°40'0 0.0
2018-Apr-21 06:30N 45°20' E 036°40'0 0.0
2018-Apr-21 06:01N 45°20' E 036°40'0 0.0
2018-Apr-21 05:31N 45°20' E 036°40'0 0.0
2018-Apr-21 05:01N 45°20' E 036°40'0 0.0
2018-Apr-21 04:30N 45°20' E 036°40'0 0.0
2018-Apr-21 04:00N 45°20' E 036°40'1 2.2
2018-Apr-21 03:30N 45°21' E 036°40'1 2.3
2018-Apr-21 03:00N 45°20' E 036°40'0 0.0
2018-Apr-21 02:30N 45°20' E 036°40'0 0.0
2018-Apr-21 02:01N 45°20' E 036°40'0 0.0
2018-Apr-21 01:29N 45°20' E 036°40'0 0.0
2018-Apr-21 01:00N 45°20' E 036°40'0 0.0
2018-Apr-21 00:30N 45°20' E 036°40'0 0.0
2018-Apr-21 00:00N 45°20' E 036°40'0 0.0
2018-Apr-20 23:31N 45°20' E 036°40'0 0.0
2018-Apr-20 23:01N 45°20' E 036°40'1 2.7
2018-Apr-20 22:31N 45°22' E 036°41'1 1.3
2018-Apr-20 22:00N 45°21' E 036°40'1 1.6
2018-Apr-20 21:31N 45°20' E 036°40'0 0.0
2018-Apr-20 21:00N 45°20' E 036°40'0 0.0
2018-Apr-20 20:31N 45°20' E 036°40'0 0.0
2018-Apr-20 20:00N 45°20' E 036°40'0 0.0
2018-Apr-20 19:30N 45°20' E 036°40'0 0.0
2018-Apr-20 19:00N 45°20' E 036°40'0 0.0
2018-Apr-20 18:31N 45°20' E 036°40'0 0.0
2018-Apr-20 18:01N 45°20' E 036°40'0 0.0
2018-Apr-20 17:30N 45°20' E 036°40'0 0.0
2018-Apr-20 17:01N 45°20' E 036°40'0 0.0
2018-Apr-20 16:24N 45°20' E 036°40'0 0.0
2018-Apr-20 16:00N 45°20' E 036°40'0 0.0
2018-Apr-20 15:31N 45°20' E 036°40'0 0.0
2018-Apr-20 15:00N 45°20' E 036°40'0 0.0
2018-Apr-20 14:30N 45°20' E 036°40'0 0.0
2018-Apr-20 14:01N 45°20' E 036°40'0 0.0
2018-Apr-20 13:30N 45°20' E 036°40'0 0.0
2018-Apr-20 13:01N 45°20' E 036°40'0 0.0
2018-Apr-20 12:30N 45°20' E 036°40'0 0.0
2018-Apr-20 12:00N 45°20' E 036°40'0 0.0
2018-Apr-20 11:30N 45°20' E 036°40'0 0.0
2018-Apr-20 11:00N 45°20' E 036°40'0 0.0
2018-Apr-20 10:30N 45°20' E 036°40'0 0.0
2018-Apr-20 10:00N 45°20' E 036°40'0 0.0
2018-Apr-20 09:30N 45°20' E 036°40'0 0.0
2018-Apr-20 09:00N 45°20' E 036°40'0 0.0
2018-Apr-20 08:30N 45°20' E 036°40'0 0.0
2018-Apr-20 08:00N 45°20' E 036°40'0 0.0
2018-Apr-20 07:31N 45°20' E 036°40'0 0.0
2018-Apr-20 07:00N 45°20' E 036°40'0 0.0
2018-Apr-20 06:30N 45°20' E 036°40'0 0.0
2018-Apr-20 06:00N 45°20' E 036°40'0 0.0
2018-Apr-20 05:30N 45°20' E 036°40'0 0.0
2018-Apr-20 05:00N 45°20' E 036°40'0 0.0
2018-Apr-20 04:30N 45°20' E 036°40'0 0.0
2018-Apr-20 04:00N 45°20' E 036°40'0 0.0
2018-Apr-20 03:30N 45°20' E 036°40'0 0.0
2018-Apr-20 03:00N 45°20' E 036°40'0 0.0
2018-Apr-20 02:30N 45°20' E 036°40'1 1.9
2018-Apr-20 02:01N 45°21' E 036°39'7 4.5
2018-Apr-20 00:22N 45°17' E 036°30'0 0.6
2018-Apr-19 23:29N 45°17' E 036°29'3 5.4
2018-Apr-19 23:00N 45°19' E 036°32'4 7.6
2018-Apr-19 22:30N 45°20' E 036°37'1 1.8
2018-Apr-19 22:00N 45°20' E 036°38'2 4.6
2018-Apr-19 21:30N 45°19' E 036°35'5 4.6
2018-Apr-19 20:31N 45°17' E 036°29'0 4.7
2018-Apr-19 20:30N 45°17' E 036°29'2 3.7
2018-Apr-19 20:00N 45°19' E 036°30'4 8.6
2018-Apr-19 19:30N 45°20' E 036°36'3 6.0
2018-Apr-19 19:00N 45°20' E 036°40'0 0.0
2018-Apr-19 18:30N 45°20' E 036°40'0 0.0
2018-Apr-19 18:00N 45°20' E 036°40'0 0.0
2018-Apr-19 17:30N 45°20' E 036°40'0 0.0
2018-Apr-19 16:59N 45°20' E 036°40'0 0.0
2018-Apr-19 16:29N 45°20' E 036°40'0 0.0
2018-Apr-19 16:00N 45°20' E 036°40'0 0.0
2018-Apr-19 15:30N 45°20' E 036°40'0 0.0
2018-Apr-19 15:00N 45°20' E 036°40'0 0.0
2018-Apr-19 14:30N 45°20' E 036°40'0 0.0
2018-Apr-19 14:00N 45°20' E 036°40'1 2.7
2018-Apr-19 13:30N 45°22' E 036°41'1 2.5
2018-Apr-19 13:00N 45°20' E 036°40'0 0.4
2018-Apr-19 12:30N 45°20' E 036°40'0 0.0
2018-Apr-19 12:00N 45°20' E 036°40'0 0.0
2018-Apr-19 11:30N 45°20' E 036°40'0 0.0
2018-Apr-19 11:00N 45°20' E 036°40'0 0.0
2018-Apr-19 10:29N 45°20' E 036°40'0 0.0
2018-Apr-19 10:00N 45°20' E 036°40'0 0.0
2018-Apr-19 09:30N 45°20' E 036°40'0 0.0
2018-Apr-19 09:00N 45°20' E 036°40'0 0.0
2018-Apr-19 08:30N 45°20' E 036°40'0 0.0
2018-Apr-19 08:00N 45°20' E 036°40'0 0.0
2018-Apr-19 07:30N 45°20' E 036°40'0 0.0
2018-Apr-19 07:00N 45°20' E 036°40'0 0.0
2018-Apr-19 06:30N 45°20' E 036°40'0 0.0
2018-Apr-19 05:59N 45°20' E 036°40'0 0.0
2018-Apr-19 05:30N 45°20' E 036°40'0 0.0
2018-Apr-19 05:00N 45°20' E 036°40'0 0.0
2018-Apr-19 04:30N 45°20' E 036°40'1 1.5
2018-Apr-19 04:01N 45°21' E 036°40'1 1.4
2018-Apr-19 03:30N 45°21' E 036°41'0 0.0
2018-Apr-19 03:00N 45°21' E 036°41'1 2.6
2018-Apr-19 02:30N 45°20' E 036°40'1 1.4
2018-Apr-19 02:00N 45°21' E 036°40'1 1.5
2018-Apr-19 01:30N 45°20' E 036°40'0 0.0
2018-Apr-19 01:00N 45°20' E 036°40'0 0.0
2018-Apr-19 00:30N 45°20' E 036°40'0 0.0
2018-Apr-19 00:00N 45°20' E 036°40'0 0.0
2018-Apr-18 23:30N 45°20' E 036°40'0 0.0
2018-Apr-18 22:59N 45°20' E 036°40'0 0.0
2018-Apr-18 22:30N 45°20' E 036°40'0 0.0
2018-Apr-18 22:00N 45°20' E 036°40'0 0.0
2018-Apr-18 21:30N 45°20' E 036°40'0 0.0
2018-Apr-18 21:00N 45°20' E 036°40'0 0.0
2018-Apr-18 20:30N 45°20' E 036°40'0 0.0
2018-Apr-18 20:00N 45°20' E 036°40'0 0.0
2018-Apr-18 19:30N 45°20' E 036°40'0 0.0
2018-Apr-18 19:00N 45°20' E 036°40'0 0.0
2018-Apr-18 18:30N 45°20' E 036°40'0 0.0
2018-Apr-18 17:59N 45°20' E 036°40'0 0.0
2018-Apr-18 17:30N 45°20' E 036°40'0 0.0
2018-Apr-18 17:00N 45°20' E 036°40'0 0.1
2018-Apr-18 16:30N 45°20' E 036°40'3 5.2
2018-Apr-18 16:00N 45°23' E 036°41'3 5.3
2018-Apr-18 15:30N 45°20' E 036°40'0 0.0
2018-Apr-18 15:00N 45°20' E 036°40'0 0.0
2018-Apr-18 14:31N 45°20' E 036°40'0 0.0
2018-Apr-18 14:00N 45°20' E 036°40'0 0.0
2018-Apr-18 13:29N 45°20' E 036°40'0 0.0
2018-Apr-18 13:00N 45°20' E 036°40'0 0.3
2018-Apr-18 12:30N 45°20' E 036°40'0 0.0
2018-Apr-18 10:57N 45°20' E 036°40'0 0.0
2018-Apr-18 10:30N 45°20' E 036°40'0 0.2
2018-Apr-18 10:00N 45°20' E 036°40'0 0.0
2018-Apr-18 09:30N 45°20' E 036°40'0 0.0
2018-Apr-18 09:00N 45°20' E 036°40'0 0.0
2018-Apr-18 08:30N 45°20' E 036°40'0 0.0
2018-Apr-18 08:00N 45°20' E 036°40'0 0.0
2018-Apr-18 07:31N 45°20' E 036°40'0 0.0
2018-Apr-18 07:00N 45°20' E 036°40'0 0.0
2018-Apr-18 06:30N 45°20' E 036°40'0 0.0
2018-Apr-18 05:02N 45°20' E 036°40'0 0.0
2018-Apr-18 04:59N 45°20' E 036°40'1 1.6
2018-Apr-18 04:30N 45°21' E 036°40'0 0.1
2018-Apr-18 04:00N 45°21' E 036°40'1 1.4
2018-Apr-18 03:30N 45°20' E 036°40'0 0.0
2018-Apr-18 03:00N 45°20' E 036°40'0 0.0
2018-Apr-18 02:30N 45°20' E 036°40'0 0.0
2018-Apr-18 02:00N 45°20' E 036°40'0 0.0
2018-Apr-18 01:30N 45°20' E 036°40'0 0.0
2018-Apr-18 01:00N 45°20' E 036°40'0 0.0
2018-Apr-18 00:29N 45°20' E 036°40'0 0.0
2018-Apr-18 00:00N 45°20' E 036°40'0 0.0
2018-Apr-17 23:30N 45°20' E 036°40'0 0.0
2018-Apr-17 23:00N 45°20' E 036°40'0 0.0
2018-Apr-17 22:29N 45°20' E 036°40'0 0.0
2018-Apr-17 21:59N 45°20' E 036°40'0 0.0
2018-Apr-17 21:30N 45°20' E 036°40'0 0.0
2018-Apr-17 21:00N 45°20' E 036°40'0 0.0
2018-Apr-17 20:30N 45°20' E 036°40'0 0.0
2018-Apr-17 20:00N 45°20' E 036°40'0 0.0
2018-Apr-17 19:30N 45°20' E 036°40'0 0.0
2018-Apr-17 19:00N 45°20' E 036°40'0 0.0
2018-Apr-17 18:30N 45°20' E 036°40'0 0.0
2018-Apr-17 18:00N 45°20' E 036°40'0 0.0
2018-Apr-17 17:30N 45°20' E 036°40'0 0.0
2018-Apr-17 17:00N 45°20' E 036°40'1 1.2
2018-Apr-17 16:30N 45°21' E 036°40'2 3.9
2018-Apr-17 16:00N 45°20' E 036°37'5 9.7
2018-Apr-17 15:30N 45°19' E 036°31'2 3.9
2018-Apr-17 14:59N 45°17' E 036°29'1 1.4
2018-Apr-17 14:30N 45°17' E 036°29'0 0.2
2018-Apr-17 14:00N 45°17' E 036°29'0 0.0
2018-Apr-17 13:29N 45°17' E 036°29'0 0.0
2018-Apr-17 13:01N 45°17' E 036°29'0 0.0
2018-Apr-17 12:30N 45°17' E 036°29'0 0.1
2018-Apr-17 12:00N 45°17' E 036°29'0 0.5
2018-Apr-17 11:28N 45°17' E 036°29'0 0.7
2018-Apr-17 11:00N 45°17' E 036°30'0 0.0
2018-Apr-17 10:29N 45°17' E 036°30'0 0.0
2018-Apr-17 10:00N 45°17' E 036°30'0 0.0
2018-Apr-17 09:30N 45°17' E 036°30'0 0.0
2018-Apr-17 09:00N 45°17' E 036°30'1 2.2
2018-Apr-17 08:24N 45°15' E 036°29'1 2.5
2018-Apr-17 07:59N 45°16' E 036°29'3 7.1
2018-Apr-17 07:30N 45°19' E 036°32'4 8.9
2018-Apr-17 07:00N 45°21' E 036°38'1 2.8
2018-Apr-17 06:30N 45°20' E 036°40'0 0.0
2018-Apr-17 06:00N 45°20' E 036°40'0 0.0
2018-Apr-17 05:30N 45°20' E 036°40'0 0.0
2018-Apr-17 05:00N 45°20' E 036°40'0 0.0
2018-Apr-17 04:30N 45°20' E 036°40'0 0.0
2018-Apr-17 04:00N 45°20' E 036°40'1 1.6
2018-Apr-17 03:30N 45°21' E 036°40'1 1.6
2018-Apr-17 03:00N 45°20' E 036°40'0 0.2
2018-Apr-17 02:30N 45°20' E 036°40'0 0.2
2018-Apr-17 02:00N 45°20' E 036°40'0 0.0
2018-Apr-17 01:30N 45°20' E 036°40'0 0.0
2018-Apr-17 01:00N 45°20' E 036°40'0 0.0
2018-Apr-17 00:30N 45°20' E 036°40'0 0.0
2018-Apr-17 00:00N 45°20' E 036°40'2 4.7
2018-Apr-16 23:30N 45°20' E 036°37'6 9.0
2018-Apr-16 22:47N 45°17' E 036°29'1 3.4
2018-Apr-16 22:30N 45°16' E 036°29'3 4.2
2018-Apr-16 21:52N 45°18' E 036°30'4 9.4
2018-Apr-16 21:30N 45°19' E 036°35'1 1.5
2018-Apr-16 21:00N 45°20' E 036°36'0 0.6
2018-Apr-16 20:30N 45°20' E 036°36'2 3.3
2018-Apr-16 20:00N 45°19' E 036°34'1 2.5
2018-Apr-16 19:30N 45°19' E 036°33'4 8.1
2018-Apr-16 19:00N 45°20' E 036°38'2 3.4
2018-Apr-16 18:30N 45°20' E 036°40'0 0.0
2018-Apr-16 18:00N 45°20' E 036°40'0 0.0
2018-Apr-16 17:30N 45°20' E 036°40'0 0.0
2018-Apr-16 17:00N 45°20' E 036°40'0 0.0
2018-Apr-16 16:30N 45°20' E 036°40'0 0.0
2018-Apr-16 16:00N 45°20' E 036°40'0 0.0
2018-Apr-16 15:30N 45°20' E 036°40'0 0.0
2018-Apr-16 15:00N 45°20' E 036°40'0 0.0
2018-Apr-16 14:30N 45°20' E 036°40'0 0.0
2018-Apr-16 14:00N 45°20' E 036°40'0 0.0
2018-Apr-16 13:30N 45°20' E 036°40'0 0.0
2018-Apr-16 13:00N 45°20' E 036°40'0 0.0
2018-Apr-16 12:30N 45°20' E 036°40'0 0.0
2018-Apr-16 12:00N 45°20' E 036°40'0 0.0
2018-Apr-16 11:30N 45°20' E 036°40'0 0.0
2018-Apr-16 11:00N 45°20' E 036°40'0 0.0
2018-Apr-16 10:30N 45°20' E 036°40'0 0.0
2018-Apr-16 10:00N 45°20' E 036°40'0 0.0
2018-Apr-16 09:29N 45°20' E 036°40'0 0.0
2018-Apr-16 08:59N 45°20' E 036°40'0 0.0
2018-Apr-16 08:30N 45°20' E 036°40'0 0.0
2018-Apr-16 08:00N 45°20' E 036°40'0 0.0
2018-Apr-16 07:30N 45°20' E 036°40'0 0.0
2018-Apr-16 07:00N 45°20' E 036°40'0 0.0
2018-Apr-16 06:30N 45°20' E 036°40'0 0.0
2018-Apr-16 06:00N 45°20' E 036°40'0 0.0
2018-Apr-16 05:30N 45°20' E 036°40'0 0.0
2018-Apr-16 05:00N 45°20' E 036°40'0 0.0
2018-Apr-16 04:30N 45°20' E 036°40'0 0.0
2018-Apr-16 04:00N 45°20' E 036°40'0 0.0
2018-Apr-16 03:30N 45°20' E 036°40'0 0.0
2018-Apr-16 03:00N 45°20' E 036°40'0 0.0
2018-Apr-16 02:29N 45°20' E 036°40'0 0.0
2018-Apr-16 02:00N 45°20' E 036°40'0 0.4
2018-Apr-16 01:30N 45°20' E 036°40'5 9.5
2018-Apr-16 01:00N 45°19' E 036°34'4 7.8
2018-Apr-16 00:30N 45°16' E 036°29'0 0.1
2018-Apr-16 00:01N 45°16' E 036°29'0 0.0
2018-Apr-15 23:30N 45°16' E 036°29'0 0.0
2018-Apr-15 22:56N 45°16' E 036°29'0 0.2
2018-Apr-15 20:13N 45°16' E 036°30'0 0.0
2018-Apr-15 20:00N 45°16' E 036°30'0 0.4
2018-Apr-15 19:30N 45°16' E 036°30'1 1.6
2018-Apr-15 18:53N 45°17' E 036°29'  
Track history (hours):
 
Tides and Currents Weather Stations Pressure Air Temp Water Temp Dewpoint Dewpoint Depression Visibility Wind Speed Wind Dir Waves Ship Positions

Bata

Last reported at 2018-Apr-25 18:01 UTC. Time now 2018-Apr-25 18:26 UTC.
Position N 45°21' E 036°40'.

Length 22 m; draft 1.9 m.

Type: Pilot. MMSI: 273397680.

Date/timePositionNaut miles runAvg speedWind from/ knotsBaromVisibWave heightAir tempDewpointWater temp
2018-Apr-25 18:01N 45°21' E 036°40'1 1.5
2018-Apr-25 17:30N 45°20' E 036°40'0 0.0
2018-Apr-25 17:00N 45°20' E 036°40'0 0.0
2018-Apr-25 16:30N 45°20' E 036°40'1 2.8
2018-Apr-25 16:01N 45°22' E 036°40'1 1.8
2018-Apr-25 15:31N 45°22' E 036°42'2 3.9
2018-Apr-25 15:00N 45°20' E 036°40'0 0.0
2018-Apr-25 14:30N 45°20' E 036°40'0 0.0
2018-Apr-25 14:00N 45°20' E 036°40'0 0.0
2018-Apr-25 13:30N 45°20' E 036°40'0 0.0
2018-Apr-25 13:00N 45°20' E 036°40'0 0.0
2018-Apr-25 12:30N 45°20' E 036°40'0 0.0
2018-Apr-25 12:00N 45°20' E 036°40'0 0.0
2018-Apr-25 11:30N 45°20' E 036°40'0 0.0
2018-Apr-25 11:00N 45°20' E 036°40'0 0.0
2018-Apr-25 10:30N 45°20' E 036°40'0 0.0
2018-Apr-25 10:00N 45°20' E 036°40'0 0.0
2018-Apr-25 09:30N 45°20' E 036°40'0 0.0
2018-Apr-25 09:00N 45°20' E 036°40'0 0.0
2018-Apr-25 08:30N 45°20' E 036°40'0 0.0
2018-Apr-25 08:00N 45°20' E 036°40'0 0.0
2018-Apr-25 07:30N 45°20' E 036°40'0 0.0
2018-Apr-25 07:00N 45°20' E 036°40'0 0.0
2018-Apr-25 06:30N 45°20' E 036°40'0 0.0
2018-Apr-25 06:00N 45°20' E 036°40'0 0.0
2018-Apr-25 05:30N 45°20' E 036°40'0 0.0
2018-Apr-25 04:59N 45°20' E 036°40'0 0.0
2018-Apr-25 04:30N 45°20' E 036°40'0 0.0
2018-Apr-25 04:00N 45°20' E 036°40'0 0.1
2018-Apr-25 03:30N 45°20' E 036°40'1 1.7
2018-Apr-25 03:00N 45°21' E 036°40'1 1.7
2018-Apr-25 02:30N 45°20' E 036°40'1 1.6
2018-Apr-25 02:00N 45°21' E 036°40'3 5.3
2018-Apr-25 01:30N 45°20' E 036°37'7 5.9
2018-Apr-25 00:23N 45°16' E 036°29'2 3.7
2018-Apr-24 23:47N 45°18' E 036°30'2 7.6
2018-Apr-24 23:30N 45°19' E 036°33'4 8.1
2018-Apr-24 23:00N 45°21' E 036°38'1 2.6
2018-Apr-24 22:30N 45°20' E 036°40'0 0.0
2018-Apr-24 22:00N 45°20' E 036°40'0 0.0
2018-Apr-24 21:30N 45°20' E 036°40'0 0.0
2018-Apr-24 21:00N 45°20' E 036°40'0 0.0
2018-Apr-24 20:30N 45°20' E 036°40'0 0.0
2018-Apr-24 20:00N 45°20' E 036°40'0 0.0
2018-Apr-24 19:30N 45°20' E 036°40'0 0.0
2018-Apr-24 19:00N 45°20' E 036°40'0 0.0
2018-Apr-24 18:30N 45°20' E 036°40'0 0.0
2018-Apr-24 18:00N 45°20' E 036°40'0 0.0
2018-Apr-24 17:30N 45°20' E 036°40'0 0.0
2018-Apr-24 17:00N 45°20' E 036°40'1 2.3
2018-Apr-24 16:30N 45°21' E 036°40'1 2.3
2018-Apr-24 16:00N 45°20' E 036°40'0 0.0
2018-Apr-24 15:30N 45°20' E 036°40'0 0.0
2018-Apr-24 15:00N 45°20' E 036°40'0 0.0
2018-Apr-24 14:30N 45°20' E 036°40'0 0.0
2018-Apr-24 14:00N 45°20' E 036°40'0 0.0
2018-Apr-24 13:29N 45°20' E 036°40'0 0.0
2018-Apr-24 13:00N 45°20' E 036°40'0 0.0
2018-Apr-24 12:30N 45°20' E 036°40'0 0.0
2018-Apr-24 12:00N 45°20' E 036°40'0 0.0
2018-Apr-24 11:30N 45°20' E 036°40'0 0.0
2018-Apr-24 11:00N 45°20' E 036°40'0 0.0
2018-Apr-24 10:30N 45°20' E 036°40'0 0.0
2018-Apr-24 10:00N 45°20' E 036°40'0 0.0
2018-Apr-24 09:29N 45°20' E 036°40'0 0.0
2018-Apr-24 09:00N 45°20' E 036°40'0 0.0
2018-Apr-24 08:30N 45°20' E 036°40'0 0.0
2018-Apr-24 08:00N 45°20' E 036°40'0 0.0
2018-Apr-24 07:30N 45°20' E 036°40'0 0.0
2018-Apr-24 06:59N 45°20' E 036°40'0 0.0
2018-Apr-24 06:30N 45°20' E 036°40'0 0.0
2018-Apr-24 05:59N 45°20' E 036°40'0 0.0
2018-Apr-24 05:30N 45°20' E 036°40'0 0.0
2018-Apr-24 05:00N 45°20' E 036°40'0 0.0
2018-Apr-24 04:30N 45°20' E 036°40'0 0.0
2018-Apr-24 04:00N 45°20' E 036°40'0 0.0
2018-Apr-24 03:30N 45°20' E 036°40'0 0.0
2018-Apr-24 03:00N 45°20' E 036°40'0 0.0
2018-Apr-24 02:30N 45°20' E 036°40'0 0.0
2018-Apr-24 02:00N 45°20' E 036°40'0 0.0
2018-Apr-24 01:30N 45°20' E 036°40'0 0.0
2018-Apr-24 01:00N 45°20' E 036°40'0 0.0
2018-Apr-24 00:30N 45°20' E 036°40'0 0.0
2018-Apr-24 00:00N 45°20' E 036°40'0 0.0
2018-Apr-23 23:30N 45°20' E 036°40'0 0.0
2018-Apr-23 23:00N 45°20' E 036°40'0 0.0
2018-Apr-23 22:30N 45°20' E 036°40'1 2.0
2018-Apr-23 22:00N 45°21' E 036°40'1 1.9
2018-Apr-23 21:30N 45°20' E 036°40'0 0.0
2018-Apr-23 21:00N 45°20' E 036°40'0 0.0
2018-Apr-23 20:30N 45°20' E 036°40'0 0.0
2018-Apr-23 20:00N 45°20' E 036°40'0 0.0
2018-Apr-23 19:30N 45°20' E 036°40'0 0.0
2018-Apr-23 19:00N 45°20' E 036°40'0 0.0
2018-Apr-23 18:29N 45°20' E 036°40'0 0.0
2018-Apr-23 17:57N 45°20' E 036°40'0 0.0
2018-Apr-23 17:29N 45°20' E 036°40'0 0.0
2018-Apr-23 17:00N 45°20' E 036°40'0 0.0
2018-Apr-23 16:30N 45°20' E 036°40'0 0.0
2018-Apr-23 16:00N 45°20' E 036°40'0 0.0
2018-Apr-23 15:30N 45°20' E 036°40'0 0.0
2018-Apr-23 15:00N 45°20' E 036°40'0 0.0
2018-Apr-23 14:30N 45°20' E 036°40'0 0.0
2018-Apr-23 14:00N 45°20' E 036°40'1 2.4
2018-Apr-23 13:30N 45°21' E 036°39'1 2.5
2018-Apr-23 13:00N 45°20' E 036°40'0 0.2
2018-Apr-23 12:30N 45°20' E 036°40'0 0.0
2018-Apr-23 12:00N 45°20' E 036°40'0 0.0
2018-Apr-23 11:30N 45°20' E 036°40'0 0.0
2018-Apr-23 11:00N 45°20' E 036°40'0 0.0
2018-Apr-23 10:30N 45°20' E 036°40'0 0.0
2018-Apr-23 10:00N 45°20' E 036°40'0 0.0
2018-Apr-23 09:29N 45°20' E 036°40'0 0.0
2018-Apr-23 09:00N 45°20' E 036°40'0 0.0
2018-Apr-23 08:30N 45°20' E 036°40'0 0.0
2018-Apr-23 08:00N 45°20' E 036°40'0 0.0
2018-Apr-23 07:29N 45°20' E 036°40'0 0.0
2018-Apr-23 07:00N 45°20' E 036°40'0 0.0
2018-Apr-23 06:30N 45°20' E 036°40'0 0.0
2018-Apr-23 06:00N 45°20' E 036°40'0 0.0
2018-Apr-23 05:30N 45°20' E 036°40'0 0.0
2018-Apr-23 05:00N 45°20' E 036°40'0 0.0
2018-Apr-23 04:30N 45°20' E 036°40'0 0.0
2018-Apr-23 04:00N 45°20' E 036°40'0 0.0
2018-Apr-23 03:29N 45°20' E 036°40'0 0.0
2018-Apr-23 03:00N 45°20' E 036°40'0 0.0
2018-Apr-23 02:29N 45°20' E 036°40'0 0.0
2018-Apr-23 01:05N 45°20' E 036°40'0 0.0
2018-Apr-23 00:57N 45°20' E 036°40'0 0.0
2018-Apr-23 00:14N 45°20' E 036°40'0 0.0
2018-Apr-23 00:00N 45°20' E 036°40'0 0.0
2018-Apr-22 23:30N 45°20' E 036°40'0 0.0
2018-Apr-22 23:00N 45°20' E 036°40'3 6.0
2018-Apr-22 22:30N 45°20' E 036°36'2 2.3
2018-Apr-22 21:25N 45°19' E 036°33'4 9.8
2018-Apr-22 21:00N 45°20' E 036°38'2 3.3
2018-Apr-22 20:30N 45°20' E 036°40'0 0.0
2018-Apr-22 19:59N 45°20' E 036°40'0 0.0
2018-Apr-22 19:29N 45°20' E 036°40'0 0.0
2018-Apr-22 18:59N 45°20' E 036°40'0 0.0
2018-Apr-22 18:30N 45°20' E 036°40'0 0.0
2018-Apr-22 18:00N 45°20' E 036°40'0 0.0
2018-Apr-22 17:30N 45°20' E 036°40'0 0.0
2018-Apr-22 17:00N 45°20' E 036°40'0 0.0
2018-Apr-22 16:31N 45°20' E 036°40'0 0.0
2018-Apr-22 16:00N 45°20' E 036°40'0 0.0
2018-Apr-22 15:30N 45°20' E 036°40'0 0.0
2018-Apr-22 14:58N 45°20' E 036°40'0 0.0
2018-Apr-22 14:30N 45°20' E 036°40'0 0.0
2018-Apr-22 14:00N 45°20' E 036°40'0 0.0
2018-Apr-22 13:29N 45°20' E 036°40'0 0.0
2018-Apr-22 13:00N 45°20' E 036°40'0 0.0
2018-Apr-22 12:30N 45°20' E 036°40'0 0.0
2018-Apr-22 12:00N 45°20' E 036°40'0 0.0
2018-Apr-22 11:30N 45°20' E 036°40'1 2.2
2018-Apr-22 11:00N 45°21' E 036°39'1 2.2
2018-Apr-22 10:30N 45°20' E 036°40'0 0.0
2018-Apr-22 10:00N 45°20' E 036°40'0 0.0
2018-Apr-22 09:30N 45°20' E 036°40'0 0.0
2018-Apr-22 09:00N 45°20' E 036°40'0 0.0
2018-Apr-22 08:30N 45°20' E 036°40'0 0.0
2018-Apr-22 08:00N 45°20' E 036°40'0 0.0
2018-Apr-22 07:30N 45°20' E 036°40'0 0.0
2018-Apr-22 07:00N 45°20' E 036°40'0 0.0
2018-Apr-22 06:30N 45°20' E 036°40'0 0.0
2018-Apr-22 06:00N 45°20' E 036°40'0 0.0
2018-Apr-22 05:30N 45°20' E 036°40'0 0.0
2018-Apr-22 05:00N 45°20' E 036°40'0 0.0
2018-Apr-22 04:30N 45°20' E 036°40'0 0.0
2018-Apr-22 04:00N 45°20' E 036°40'0 0.0
2018-Apr-22 03:30N 45°20' E 036°40'0 0.0
2018-Apr-22 03:00N 45°20' E 036°40'0 0.0
2018-Apr-22 02:30N 45°20' E 036°40'0 0.0
2018-Apr-22 01:59N 45°20' E 036°40'0 0.0
2018-Apr-22 01:30N 45°20' E 036°40'0 0.0
2018-Apr-22 01:00N 45°20' E 036°40'0 0.0
2018-Apr-22 00:30N 45°20' E 036°40'0 0.0
2018-Apr-22 00:00N 45°20' E 036°40'0 0.0
2018-Apr-21 23:28N 45°20' E 036°40'0 0.0
2018-Apr-21 23:00N 45°20' E 036°40'0 0.0
2018-Apr-21 22:30N 45°20' E 036°40'0 0.0
2018-Apr-21 22:00N 45°20' E 036°40'0 0.0
2018-Apr-21 21:30N 45°20' E 036°40'0 0.0
2018-Apr-21 21:00N 45°20' E 036°40'0 0.0
2018-Apr-21 20:30N 45°20' E 036°40'0 0.0
2018-Apr-21 20:00N 45°20' E 036°40'0 0.0
2018-Apr-21 19:30N 45°20' E 036°40'0 0.0
2018-Apr-21 19:00N 45°20' E 036°40'0 0.0
2018-Apr-21 18:30N 45°20' E 036°40'0 0.0
2018-Apr-21 18:00N 45°20' E 036°40'0 0.0
2018-Apr-21 17:30N 45°20' E 036°40'0 0.0
2018-Apr-21 17:00N 45°20' E 036°40'1 2.1
2018-Apr-21 16:30N 45°21' E 036°40'1 1.9
2018-Apr-21 16:00N 45°20' E 036°40'1 1.1
2018-Apr-21 15:30N 45°21' E 036°40'0 0.7
2018-Apr-21 15:01N 45°21' E 036°40'0 0.2
2018-Apr-21 14:28N 45°21' E 036°40'1 1.5
2018-Apr-21 14:00N 45°21' E 036°40'1 1.1
2018-Apr-21 13:30N 45°20' E 036°40'0 0.0
2018-Apr-21 13:01N 45°20' E 036°40'0 0.0
2018-Apr-21 12:30N 45°20' E 036°40'0 0.0
2018-Apr-21 12:00N 45°20' E 036°40'0 0.0
2018-Apr-21 11:31N 45°20' E 036°40'0 0.0
2018-Apr-21 11:01N 45°20' E 036°40'0 0.0
2018-Apr-21 10:31N 45°20' E 036°40'0 0.0
2018-Apr-21 10:01N 45°20' E 036°40'0 0.0
2018-Apr-21 09:31N 45°20' E 036°40'0 0.0
2018-Apr-21 09:00N 45°20' E 036°40'0 0.0
2018-Apr-21 08:30N 45°20' E 036°40'0 0.0
2018-Apr-21 08:00N 45°20' E 036°40'0 0.0
2018-Apr-21 07:31N 45°20' E 036°40'0 0.0
2018-Apr-21 07:00N 45°20' E 036°40'0 0.0
2018-Apr-21 06:30N 45°20' E 036°40'0 0.0
2018-Apr-21 06:01N 45°20' E 036°40'0 0.0
2018-Apr-21 05:31N 45°20' E 036°40'0 0.0
2018-Apr-21 05:01N 45°20' E 036°40'0 0.0
2018-Apr-21 04:30N 45°20' E 036°40'0 0.0
2018-Apr-21 04:00N 45°20' E 036°40'1 2.2
2018-Apr-21 03:30N 45°21' E 036°40'1 2.3
2018-Apr-21 03:00N 45°20' E 036°40'0 0.0
2018-Apr-21 02:30N 45°20' E 036°40'0 0.0
2018-Apr-21 02:01N 45°20' E 036°40'0 0.0
2018-Apr-21 01:29N 45°20' E 036°40'0 0.0
2018-Apr-21 01:00N 45°20' E 036°40'0 0.0
2018-Apr-21 00:30N 45°20' E 036°40'0 0.0
2018-Apr-21 00:00N 45°20' E 036°40'0 0.0
2018-Apr-20 23:31N 45°20' E 036°40'0 0.0
2018-Apr-20 23:01N 45°20' E 036°40'1 2.7
2018-Apr-20 22:31N 45°22' E 036°41'1 1.3
2018-Apr-20 22:00N 45°21' E 036°40'1 1.6
2018-Apr-20 21:31N 45°20' E 036°40'0 0.0
2018-Apr-20 21:00N 45°20' E 036°40'0 0.0
2018-Apr-20 20:31N 45°20' E 036°40'0 0.0
2018-Apr-20 20:00N 45°20' E 036°40'0 0.0
2018-Apr-20 19:30N 45°20' E 036°40'0 0.0
2018-Apr-20 19:00N 45°20' E 036°40'0 0.0
2018-Apr-20 18:31N 45°20' E 036°40'0 0.0
2018-Apr-20 18:01N 45°20' E 036°40'0 0.0
2018-Apr-20 17:30N 45°20' E 036°40'0 0.0
2018-Apr-20 17:01N 45°20' E 036°40'0 0.0
2018-Apr-20 16:24N 45°20' E 036°40'0 0.0
2018-Apr-20 16:00N 45°20' E 036°40'0 0.0
2018-Apr-20 15:31N 45°20' E 036°40'0 0.0
2018-Apr-20 15:00N 45°20' E 036°40'0 0.0
2018-Apr-20 14:30N 45°20' E 036°40'0 0.0
2018-Apr-20 14:01N 45°20' E 036°40'0 0.0
2018-Apr-20 13:30N 45°20' E 036°40'0 0.0
2018-Apr-20 13:01N 45°20' E 036°40'0 0.0
2018-Apr-20 12:30N 45°20' E 036°40'0 0.0
2018-Apr-20 12:00N 45°20' E 036°40'0 0.0
2018-Apr-20 11:30N 45°20' E 036°40'0 0.0
2018-Apr-20 11:00N 45°20' E 036°40'0 0.0
2018-Apr-20 10:30N 45°20' E 036°40'0 0.0
2018-Apr-20 10:00N 45°20' E 036°40'0 0.0
2018-Apr-20 09:30N 45°20' E 036°40'0 0.0
2018-Apr-20 09:00N 45°20' E 036°40'0 0.0
2018-Apr-20 08:30N 45°20' E 036°40'0 0.0
2018-Apr-20 08:00N 45°20' E 036°40'0 0.0
2018-Apr-20 07:31N 45°20' E 036°40'0 0.0
2018-Apr-20 07:00N 45°20' E 036°40'0 0.0
2018-Apr-20 06:30N 45°20' E 036°40'0 0.0
2018-Apr-20 06:00N 45°20' E 036°40'0 0.0
2018-Apr-20 05:30N 45°20' E 036°40'0 0.0
2018-Apr-20 05:00N 45°20' E 036°40'0 0.0
2018-Apr-20 04:30N 45°20' E 036°40'0 0.0
2018-Apr-20 04:00N 45°20' E 036°40'0 0.0
2018-Apr-20 03:30N 45°20' E 036°40'0 0.0
2018-Apr-20 03:00N 45°20' E 036°40'0 0.0
2018-Apr-20 02:30N 45°20' E 036°40'1 1.9
2018-Apr-20 02:01N 45°21' E 036°39'7 4.5
2018-Apr-20 00:22N 45°17' E 036°30'0 0.6
2018-Apr-19 23:29N 45°17' E 036°29'3 5.4
2018-Apr-19 23:00N 45°19' E 036°32'4 7.6
2018-Apr-19 22:30N 45°20' E 036°37'1 1.8
2018-Apr-19 22:00N 45°20' E 036°38'2 4.6
2018-Apr-19 21:30N 45°19' E 036°35'5 4.6
2018-Apr-19 20:31N 45°17' E 036°29'0 4.7
2018-Apr-19 20:30N 45°17' E 036°29'2 3.7
2018-Apr-19 20:00N 45°19' E 036°30'4 8.6
2018-Apr-19 19:30N 45°20' E 036°36'3 6.0
2018-Apr-19 19:00N 45°20' E 036°40'0 0.0
2018-Apr-19 18:30N 45°20' E 036°40'0 0.0
2018-Apr-19 18:00N 45°20' E 036°40'0 0.0
2018-Apr-19 17:30N 45°20' E 036°40'0 0.0
2018-Apr-19 16:59N 45°20' E 036°40'0 0.0
2018-Apr-19 16:29N 45°20' E 036°40'0 0.0
2018-Apr-19 16:00N 45°20' E 036°40'0 0.0
2018-Apr-19 15:30N 45°20' E 036°40'0 0.0
2018-Apr-19 15:00N 45°20' E 036°40'0 0.0
2018-Apr-19 14:30N 45°20' E 036°40'0 0.0
2018-Apr-19 14:00N 45°20' E 036°40'1 2.7
2018-Apr-19 13:30N 45°22' E 036°41'1 2.5
2018-Apr-19 13:00N 45°20' E 036°40'0 0.4
2018-Apr-19 12:30N 45°20' E 036°40'0 0.0
2018-Apr-19 12:00N 45°20' E 036°40'0 0.0
2018-Apr-19 11:30N 45°20' E 036°40'0 0.0
2018-Apr-19 11:00N 45°20' E 036°40'0 0.0
2018-Apr-19 10:29N 45°20' E 036°40'0 0.0
2018-Apr-19 10:00N 45°20' E 036°40'0 0.0
2018-Apr-19 09:30N 45°20' E 036°40'0 0.0
2018-Apr-19 09:00N 45°20' E 036°40'0 0.0
2018-Apr-19 08:30N 45°20' E 036°40'0 0.0
2018-Apr-19 08:00N 45°20' E 036°40'0 0.0
2018-Apr-19 07:30N 45°20' E 036°40'0 0.0
2018-Apr-19 07:00N 45°20' E 036°40'0 0.0
2018-Apr-19 06:30N 45°20' E 036°40'0 0.0
2018-Apr-19 05:59N 45°20' E 036°40'0 0.0
2018-Apr-19 05:30N 45°20' E 036°40'0 0.0
2018-Apr-19 05:00N 45°20' E 036°40'0 0.0
2018-Apr-19 04:30N 45°20' E 036°40'1 1.5
2018-Apr-19 04:01N 45°21' E 036°40'1 1.4
2018-Apr-19 03:30N 45°21' E 036°41'0 0.0
2018-Apr-19 03:00N 45°21' E 036°41'1 2.6
2018-Apr-19 02:30N 45°20' E 036°40'1 1.4
2018-Apr-19 02:00N 45°21' E 036°40'1 1.5
2018-Apr-19 01:30N 45°20' E 036°40'0 0.0
2018-Apr-19 01:00N 45°20' E 036°40'0 0.0
2018-Apr-19 00:30N 45°20' E 036°40'0 0.0
2018-Apr-19 00:00N 45°20' E 036°40'0 0.0
2018-Apr-18 23:30N 45°20' E 036°40'0 0.0
2018-Apr-18 22:59N 45°20' E 036°40'0 0.0
2018-Apr-18 22:30N 45°20' E 036°40'0 0.0
2018-Apr-18 22:00N 45°20' E 036°40'0 0.0
2018-Apr-18 21:30N 45°20' E 036°40'0 0.0
2018-Apr-18 21:00N 45°20' E 036°40'0 0.0
2018-Apr-18 20:30N 45°20' E 036°40'0 0.0
2018-Apr-18 20:00N 45°20' E 036°40'0 0.0
2018-Apr-18 19:30N 45°20' E 036°40'0 0.0
2018-Apr-18 19:00N 45°20' E 036°40'0 0.0
2018-Apr-18 18:30N 45°20' E 036°40'0 0.0
2018-Apr-18 17:59N 45°20' E 036°40'0 0.0
2018-Apr-18 17:30N 45°20' E 036°40'0 0.0
2018-Apr-18 17:00N 45°20' E 036°40'0 0.1
2018-Apr-18 16:30N 45°20' E 036°40'3 5.2
2018-Apr-18 16:00N 45°23' E 036°41'3 5.3
2018-Apr-18 15:30N 45°20' E 036°40'0 0.0
2018-Apr-18 15:00N 45°20' E 036°40'0 0.0
2018-Apr-18 14:31N 45°20' E 036°40'0 0.0
2018-Apr-18 14:00N 45°20' E 036°40'0 0.0
2018-Apr-18 13:29N 45°20' E 036°40'0 0.0
2018-Apr-18 13:00N 45°20' E 036°40'0 0.3
2018-Apr-18 12:30N 45°20' E 036°40'0 0.0
2018-Apr-18 10:57N 45°20' E 036°40'0 0.0
2018-Apr-18 10:30N 45°20' E 036°40'0 0.2
2018-Apr-18 10:00N 45°20' E 036°40'0 0.0
2018-Apr-18 09:30N 45°20' E 036°40'0 0.0
2018-Apr-18 09:00N 45°20' E 036°40'0 0.0
2018-Apr-18 08:30N 45°20' E 036°40'0 0.0
2018-Apr-18 08:00N 45°20' E 036°40'0 0.0
2018-Apr-18 07:31N 45°20' E 036°40'0 0.0
2018-Apr-18 07:00N 45°20' E 036°40'0 0.0
2018-Apr-18 06:30N 45°20' E 036°40'0 0.0
2018-Apr-18 05:02N 45°20' E 036°40'0 0.0
2018-Apr-18 04:59N 45°20' E 036°40'1 1.6
2018-Apr-18 04:30N 45°21' E 036°40'0 0.1
2018-Apr-18 04:00N 45°21' E 036°40'1 1.4
2018-Apr-18 03:30N 45°20' E 036°40'0 0.0
2018-Apr-18 03:00N 45°20' E 036°40'0 0.0
2018-Apr-18 02:30N 45°20' E 036°40'0 0.0
2018-Apr-18 02:00N 45°20' E 036°40'0 0.0
2018-Apr-18 01:30N 45°20' E 036°40'0 0.0
2018-Apr-18 01:00N 45°20' E 036°40'0 0.0
2018-Apr-18 00:29N 45°20' E 036°40'0 0.0
2018-Apr-18 00:00N 45°20' E 036°40'0 0.0
2018-Apr-17 23:30N 45°20' E 036°40'0 0.0
2018-Apr-17 23:00N 45°20' E 036°40'0 0.0
2018-Apr-17 22:29N 45°20' E 036°40'0 0.0
2018-Apr-17 21:59N 45°20' E 036°40'0 0.0
2018-Apr-17 21:30N 45°20' E 036°40'0 0.0
2018-Apr-17 21:00N 45°20' E 036°40'0 0.0
2018-Apr-17 20:30N 45°20' E 036°40'0 0.0
2018-Apr-17 20:00N 45°20' E 036°40'0 0.0
2018-Apr-17 19:30N 45°20' E 036°40'0 0.0
2018-Apr-17 19:00N 45°20' E 036°40'0 0.0
2018-Apr-17 18:30N 45°20' E 036°40'0 0.0
2018-Apr-17 18:00N 45°20' E 036°40'0 0.0
2018-Apr-17 17:30N 45°20' E 036°40'0 0.0
2018-Apr-17 17:00N 45°20' E 036°40'1 1.2
2018-Apr-17 16:30N 45°21' E 036°40'2 3.9
2018-Apr-17 16:00N 45°20' E 036°37'5 9.7
2018-Apr-17 15:30N 45°19' E 036°31'2 3.9
2018-Apr-17 14:59N 45°17' E 036°29'1 1.4
2018-Apr-17 14:30N 45°17' E 036°29'0 0.2
2018-Apr-17 14:00N 45°17' E 036°29'0 0.0
2018-Apr-17 13:29N 45°17' E 036°29'0 0.0
2018-Apr-17 13:01N 45°17' E 036°29'0 0.0
2018-Apr-17 12:30N 45°17' E 036°29'0 0.1
2018-Apr-17 12:00N 45°17' E 036°29'0 0.5
2018-Apr-17 11:28N 45°17' E 036°29'0 0.7
2018-Apr-17 11:00N 45°17' E 036°30'0 0.0
2018-Apr-17 10:29N 45°17' E 036°30'0 0.0
2018-Apr-17 10:00N 45°17' E 036°30'0 0.0
2018-Apr-17 09:30N 45°17' E 036°30'0 0.0
2018-Apr-17 09:00N 45°17' E 036°30'1 2.2
2018-Apr-17 08:24N 45°15' E 036°29'1 2.5
2018-Apr-17 07:59N 45°16' E 036°29'3 7.1
2018-Apr-17 07:30N 45°19' E 036°32'4 8.9
2018-Apr-17 07:00N 45°21' E 036°38'1 2.8
2018-Apr-17 06:30N 45°20' E 036°40'0 0.0
2018-Apr-17 06:00N 45°20' E 036°40'0 0.0
2018-Apr-17 05:30N 45°20' E 036°40'0 0.0
2018-Apr-17 05:00N 45°20' E 036°40'0 0.0
2018-Apr-17 04:30N 45°20' E 036°40'0 0.0
2018-Apr-17 04:00N 45°20' E 036°40'1 1.6
2018-Apr-17 03:30N 45°21' E 036°40'1 1.6
2018-Apr-17 03:00N 45°20' E 036°40'0 0.2
2018-Apr-17 02:30N 45°20' E 036°40'0 0.2
2018-Apr-17 02:00N 45°20' E 036°40'0 0.0
2018-Apr-17 01:30N 45°20' E 036°40'0 0.0
2018-Apr-17 01:00N 45°20' E 036°40'0 0.0
2018-Apr-17 00:30N 45°20' E 036°40'0 0.0
2018-Apr-17 00:00N 45°20' E 036°40'2 4.7
2018-Apr-16 23:30N 45°20' E 036°37'6 9.0
2018-Apr-16 22:47N 45°17' E 036°29'1 3.4
2018-Apr-16 22:30N 45°16' E 036°29'3 4.2
2018-Apr-16 21:52N 45°18' E 036°30'4 9.4
2018-Apr-16 21:30N 45°19' E 036°35'1 1.5
2018-Apr-16 21:00N 45°20' E 036°36'0 0.6
2018-Apr-16 20:30N 45°20' E 036°36'2 3.3
2018-Apr-16 20:00N 45°19' E 036°34'1 2.5
2018-Apr-16 19:30N 45°19' E 036°33'4 8.1
2018-Apr-16 19:00N 45°20' E 036°38'2 3.4
2018-Apr-16 18:30N 45°20' E 036°40'0 0.0
2018-Apr-16 18:00N 45°20' E 036°40'0 0.0
2018-Apr-16 17:30N 45°20' E 036°40'0 0.0
2018-Apr-16 17:00N 45°20' E 036°40'0 0.0
2018-Apr-16 16:30N 45°20' E 036°40'0 0.0
2018-Apr-16 16:00N 45°20' E 036°40'0 0.0
2018-Apr-16 15:30N 45°20' E 036°40'0 0.0
2018-Apr-16 15:00N 45°20' E 036°40'0 0.0
2018-Apr-16 14:30N 45°20' E 036°40'0 0.0
2018-Apr-16 14:00N 45°20' E 036°40'0 0.0
2018-Apr-16 13:30N 45°20' E 036°40'0 0.0
2018-Apr-16 13:00N 45°20' E 036°40'0 0.0
2018-Apr-16 12:30N 45°20' E 036°40'0 0.0
2018-Apr-16 12:00N 45°20' E 036°40'0 0.0
2018-Apr-16 11:30N 45°20' E 036°40'0 0.0
2018-Apr-16 11:00N 45°20' E 036°40'0 0.0
2018-Apr-16 10:30N 45°20' E 036°40'0 0.0
2018-Apr-16 10:00N 45°20' E 036°40'0 0.0
2018-Apr-16 09:29N 45°20' E 036°40'0 0.0
2018-Apr-16 08:59N 45°20' E 036°40'0 0.0
2018-Apr-16 08:30N 45°20' E 036°40'0 0.0
2018-Apr-16 08:00N 45°20' E 036°40'0 0.0
2018-Apr-16 07:30N 45°20' E 036°40'0 0.0
2018-Apr-16 07:00N 45°20' E 036°40'0 0.0
2018-Apr-16 06:30N 45°20' E 036°40'0 0.0
2018-Apr-16 06:00N 45°20' E 036°40'0 0.0
2018-Apr-16 05:30N 45°20' E 036°40'0 0.0
2018-Apr-16 05:00N 45°20' E 036°40'0 0.0
2018-Apr-16 04:30N 45°20' E 036°40'0 0.0
2018-Apr-16 04:00N 45°20' E 036°40'0 0.0
2018-Apr-16 03:30N 45°20' E 036°40'0 0.0
2018-Apr-16 03:00N 45°20' E 036°40'0 0.0
2018-Apr-16 02:29N 45°20' E 036°40'0 0.0
2018-Apr-16 02:00N 45°20' E 036°40'0 0.4
2018-Apr-16 01:30N 45°20' E 036°40'5 9.5
2018-Apr-16 01:00N 45°19' E 036°34'4 7.8
2018-Apr-16 00:30N 45°16' E 036°29'0 0.1
2018-Apr-16 00:01N 45°16' E 036°29'0 0.0
2018-Apr-15 23:30N 45°16' E 036°29'0 0.0
2018-Apr-15 22:56N 45°16' E 036°29'0 0.2
2018-Apr-15 20:13N 45°16' E 036°30'0 0.0
2018-Apr-15 20:00N 45°16' E 036°30'0 0.4
2018-Apr-15 19:30N 45°16' E 036°30'1 1.6
2018-Apr-15 18:53N 45°17' E 036°29'  

Dump ship's entire track history